To NAV CANADA Home Page Login to a new session Search on AWWS site Feedback and Comments Disclaimer Vers la page française équivalente Tips FAQ What's new on the site To the Forecasts and Observations / NOTAM section To "File a Flight Plan" website Publications and other links Update of the User's profile FIC Telephone Numbers My Weather Data Folder Route Weather Data Regional Weather Data Local Weather Data To the Forecasts and Observations / NOTAM section
Request Generated 05/30/2016 at 12:25:14 UTC . Weather information available at that time is displayed.

METAR/TAF

TORONTO/BILLY BISHOP TORONTO CITY AIRPORT/ON    (show WxCam)

METAR CYTZ 301200Z AUTO 22007KT 9SM CLR 17/15 A2993 RMK SLP137
DENSITY ALT 500FT=
METAR CYTZ 301100Z AUTO 22011KT 9SM CLR 17/15 A2992 RMK SLP134
DENSITY ALT 500FT=
METAR CYTZ 301000Z AUTO 20004KT 9SM CLR 17/15 A2990 RMK SLP127
DENSITY ALT 500FT=

TAF CYTZ 300738Z 3008/3108 25010KT P6SM FEW030 TEMPO 3008/3012 6SM BR
FM301200 23009KT P6SM SKC
FM301700 27012KT P6SM BKN050 TEMPO 3017/3023 SCT050
FM302300 29012KT P6SM FEW060
BECMG 3103/3105 34008KT
RMK FCST BASED ON AUTO OBS. NXT FCST BY 301400Z=
Your time UTC time
Weather data provided by Environment Canada and NAV CANADA